Boardwalk — ZGAQ7 — position and weather

sailwx.info

Track history (hours):
 
Tides and Currents Weather Stations Pressure Air Temp Water Temp Dewpoint Dewpoint Depression Visibility Wind Speed Wind Dir Waves Ship Positions

Boardwalk

Last reported at 2016-Jun-22 18:08 UTC. Time now 2016-Jul-02 07:37 UTC.
Position N 41°23' E 002°11'.
Warning: this ship's position is 9 days out of date.

Length 50 m; draft 2.7 m.

Type: Pleasure craft. MMSI: 319031900.

Date/timePositionNaut miles runAvg speedWind from/ knotsBaromVisibWave heightAir tempDewpointWater temp
2016-Jun-22 18:08N 41°23' E 002°11'0 0.0
2016-Jun-22 17:17N 41°23' E 002°11'0 0.0
2016-Jun-22 16:32N 41°23' E 002°11'0 0.0
2016-Jun-22 12:26N 41°23' E 002°11'0 0.0
2016-Jun-22 09:26N 41°23' E 002°11'0 0.0
2016-Jun-21 13:20N 41°23' E 002°11'0 0.0
2016-Jun-21 08:29N 41°23' E 002°11'8 8.7
2016-Jun-21 07:31N 41°14' E 002°11'2613.3
2016-Jun-21 05:33N 40°51' E 001°55'1413.6
2016-Jun-21 04:33N 40°39' E 001°46'1313.3
2016-Jun-21 03:33N 40°28' E 001°38'1313.0
2016-Jun-21 02:33N 40°16' E 001°30'1312.7
2016-Jun-21 01:33N 40°05' E 001°23'1512.8
2016-Jun-21 00:21N 39°51' E 001°14'17112.4
2016-Jun-20 10:32N 37°27' W 000°44'11011.0
2016-Jun-20 00:32N 36°19' W 002°33'1313.0
2016-Jun-19 23:32N 36°17' W 002°49'1313.3
2016-Jun-19 22:33N 36°16' W 003°05'10514.1
2016-Jun-19 15:08N 36°01' W 005°14'813.8
2016-Jun-19 14:34N 36°06' W 005°22'2 0.2
2016-Jun-19 02:29N 36°08' W 005°21'0 0.0
2016-Jun-18 20:29N 36°08' W 005°21'0 0.0
2016-Jun-18 18:11N 36°08' W 005°21'0 0.0
2016-Jun-18 17:29N 36°08' W 005°21'0 0.0
2016-Jun-18 16:32N 36°08' W 005°21'0 0.0
2016-Jun-18 15:32N 36°08' W 005°21'0 0.0
2016-Jun-18 14:32N 36°08' W 005°21'0 0.0
2016-Jun-18 13:32N 36°08' W 005°21'0 0.0
2016-Jun-18 12:32N 36°08' W 005°21'0 0.0
2016-Jun-18 09:05N 36°08' W 005°21'0 0.0
2016-Jun-18 05:32N 36°08' W 005°21'0 0.0
2016-Jun-18 04:29N 36°08' W 005°21'0 0.0
2016-Jun-18 03:32N 36°08' W 005°21'0 0.0
2016-Jun-18 02:32N 36°08' W 005°21'0 0.0
2016-Jun-17 23:14N 36°08' W 005°21'0 0.0
2016-Jun-17 22:32N 36°08' W 005°21'0 0.0
2016-Jun-17 21:32N 36°08' W 005°21'0 0.0
2016-Jun-17 20:29N 36°08' W 005°21'0 0.0
2016-Jun-17 18:11N 36°08' W 005°21'0 0.0
2016-Jun-17 17:26N 36°08' W 005°21'0 0.0
2016-Jun-17 16:17N 36°08' W 005°21'0 0.0
2016-Jun-17 15:05N 36°08' W 005°21'1 0.0
2016-Jun-16 05:32N 36°08' W 005°23'8 8.7
2016-Jun-16 04:33N 35°59' W 005°23'  
2016-Jun-14 00:21N 37°21' W 019°57'1113.4
2016-Jun-13 23:32N 37°23' W 020°10'17913.3
2016-Jun-13 10:06N 37°55' W 023°53'813.8
2016-Jun-13 09:33N 37°55' W 024°02'1313.4
2016-Jun-13 08:33N 37°56' W 024°19'1413.7
2016-Jun-13 07:33N 37°58' W 024°36'1413.6
2016-Jun-13 06:34N 37°60' W 024°53'1313.0
2016-Jun-13 05:33N 38°01' W 025°10'1313.0
2016-Jun-13 04:33N 38°03' W 025°26'1413.7
2016-Jun-13 03:34N 38°05' W 025°43'1413.8
2016-Jun-13 02:33N 38°06' W 026°01'1313.5
2016-Jun-13 01:34N 38°08' W 026°18'1313.4
2016-Jun-13 00:33N 38°09' W 026°35'1413.5
2016-Jun-12 23:33N 38°10' W 026°52'1313.4
2016-Jun-12 22:33N 38°11' W 027°09'1413.7
2016-Jun-12 21:33N 38°15' W 027°26'1413.7
2016-Jun-12 20:33N 38°17' W 027°43'1414.0
2016-Jun-12 19:33N 38°19' W 028°01'1313.4
2016-Jun-12 18:34N 38°20' W 028°18'  
Track history (hours):
 
Tides and Currents Weather Stations Pressure Air Temp Water Temp Dewpoint Dewpoint Depression Visibility Wind Speed Wind Dir Waves Ship Positions

Boardwalk

Last reported at 2016-Jun-22 18:08 UTC. Time now 2016-Jul-02 07:37 UTC.
Position N 41°23' E 002°11'.
Warning: this ship's position is 9 days out of date.

Length 50 m; draft 2.7 m.

Type: Pleasure craft. MMSI: 319031900.

Date/timePositionNaut miles runAvg speedWind from/ knotsBaromVisibWave heightAir tempDewpointWater temp
2016-Jun-22 18:08N 41°23' E 002°11'0 0.0
2016-Jun-22 17:17N 41°23' E 002°11'0 0.0
2016-Jun-22 16:32N 41°23' E 002°11'0 0.0
2016-Jun-22 12:26N 41°23' E 002°11'0 0.0
2016-Jun-22 09:26N 41°23' E 002°11'0 0.0
2016-Jun-21 13:20N 41°23' E 002°11'0 0.0
2016-Jun-21 08:29N 41°23' E 002°11'8 8.7
2016-Jun-21 07:31N 41°14' E 002°11'2613.3
2016-Jun-21 05:33N 40°51' E 001°55'1413.6
2016-Jun-21 04:33N 40°39' E 001°46'1313.3
2016-Jun-21 03:33N 40°28' E 001°38'1313.0
2016-Jun-21 02:33N 40°16' E 001°30'1312.7
2016-Jun-21 01:33N 40°05' E 001°23'1512.8
2016-Jun-21 00:21N 39°51' E 001°14'17112.4
2016-Jun-20 10:32N 37°27' W 000°44'11011.0
2016-Jun-20 00:32N 36°19' W 002°33'1313.0
2016-Jun-19 23:32N 36°17' W 002°49'1313.3
2016-Jun-19 22:33N 36°16' W 003°05'10514.1
2016-Jun-19 15:08N 36°01' W 005°14'813.8
2016-Jun-19 14:34N 36°06' W 005°22'2 0.2
2016-Jun-19 02:29N 36°08' W 005°21'0 0.0
2016-Jun-18 20:29N 36°08' W 005°21'0 0.0
2016-Jun-18 18:11N 36°08' W 005°21'0 0.0
2016-Jun-18 17:29N 36°08' W 005°21'0 0.0
2016-Jun-18 16:32N 36°08' W 005°21'0 0.0
2016-Jun-18 15:32N 36°08' W 005°21'0 0.0
2016-Jun-18 14:32N 36°08' W 005°21'0 0.0
2016-Jun-18 13:32N 36°08' W 005°21'0 0.0
2016-Jun-18 12:32N 36°08' W 005°21'0 0.0
2016-Jun-18 09:05N 36°08' W 005°21'0 0.0
2016-Jun-18 05:32N 36°08' W 005°21'0 0.0
2016-Jun-18 04:29N 36°08' W 005°21'0 0.0
2016-Jun-18 03:32N 36°08' W 005°21'0 0.0
2016-Jun-18 02:32N 36°08' W 005°21'0 0.0
2016-Jun-17 23:14N 36°08' W 005°21'0 0.0
2016-Jun-17 22:32N 36°08' W 005°21'0 0.0
2016-Jun-17 21:32N 36°08' W 005°21'0 0.0
2016-Jun-17 20:29N 36°08' W 005°21'0 0.0
2016-Jun-17 18:11N 36°08' W 005°21'0 0.0
2016-Jun-17 17:26N 36°08' W 005°21'0 0.0
2016-Jun-17 16:17N 36°08' W 005°21'0 0.0
2016-Jun-17 15:05N 36°08' W 005°21'1 0.0
2016-Jun-16 05:32N 36°08' W 005°23'8 8.7
2016-Jun-16 04:33N 35°59' W 005°23'  
2016-Jun-14 00:21N 37°21' W 019°57'1113.4
2016-Jun-13 23:32N 37°23' W 020°10'17913.3
2016-Jun-13 10:06N 37°55' W 023°53'813.8
2016-Jun-13 09:33N 37°55' W 024°02'1313.4
2016-Jun-13 08:33N 37°56' W 024°19'1413.7
2016-Jun-13 07:33N 37°58' W 024°36'1413.6
2016-Jun-13 06:34N 37°60' W 024°53'1313.0
2016-Jun-13 05:33N 38°01' W 025°10'1313.0
2016-Jun-13 04:33N 38°03' W 025°26'1413.7
2016-Jun-13 03:34N 38°05' W 025°43'1413.8
2016-Jun-13 02:33N 38°06' W 026°01'1313.5
2016-Jun-13 01:34N 38°08' W 026°18'1313.4
2016-Jun-13 00:33N 38°09' W 026°35'1413.5
2016-Jun-12 23:33N 38°10' W 026°52'1313.4
2016-Jun-12 22:33N 38°11' W 027°09'1413.7
2016-Jun-12 21:33N 38°15' W 027°26'1413.7
2016-Jun-12 20:33N 38°17' W 027°43'1414.0
2016-Jun-12 19:33N 38°19' W 028°01'1313.4
2016-Jun-12 18:34N 38°20' W 028°18'  

Dump ship's entire track history